Lancaster, PA

10:03 AM EDT on April 21, 2015 (GMT -0400)
Reading Regional-Spaatz | | Change Station
CLOSE
Current Station
Airport
Location: Reading,
Elevation: 344 ft
Nearby Weather Stations

Elev 344 ft 40.37 °N, 75.96 °W | Updated 9 minutes ago

Partly Cloudy
Partly Cloudy
57 °F
Feels Like 57 °F
N
16
Wind Variable Wind from WNW
Gusts 29 mph

Today
High -- | Low -- °F
--% Chance of Precip.
Yesterday
High -- | Low -- °F
Precip. -- in
6:18 AM 7:49 PM
Waxing Crescent, 10% visible
Pressure 29.72 in
Visibility 10.0 miles
Clouds Scattered Clouds 5000 ft
Dew Point 37 °F
Humidity 47%
Rainfall 0.59 in
Snow Depth Not available.
UV 4 out of 12
Pollen 10.40 out of 12
Air Quality Not available.
Flu Activity Sporadic
METAR KRDG 211354Z 29014G25KT 10SM SCT050 14/03 A2971 RMK AO2 SLP063 T01390028

More Conditions Fewer Conditions

Pressure 29.72 in
Visibility 10.0 miles
Clouds Scattered Clouds 5000 ft
Dew Point 37 °F
Humidity 47%
Rainfall 0.59 in
Snow Depth Not available.
UV 4 out of 12
Pollen 10.40 out of 12
Air Quality Not available.
Flu Activity Sporadic
METAR KRDG 211354Z 29014G25KT 10SM SCT050 14/03 A2971 RMK AO2 SLP063 T01390028

More Conditions Fewer Conditions

10-Day Weather Forecast

Almanac

Astronomy

Apr. 21, 2015 Rise Set
Actual Time
Civil Twilight
Nautical Twilight
Astronomical Twilight
Moon
Length of Visible Light
Length of Day
Tomorrow will be .
, % of the Moon is Illuminated

Today's Extremes

State Highs State Lows

Community

WunderPhotos

Upload Photos

1,815,393 photos uploaded!

WunderBlogs® & News

Nearby

Air Quality

  Air Quality AQ Index Pollutant
Not available.

Snow Depth

Station Depth Elevation

Earthquake Activity

City Distance Mag. Time & Date
Minimum magnitude displayed is 2.5.

Coastal Water Temperatures

Place Temperature

Stations

Nearby Weather Stations

Station Location Temp. Windchill Dew Point Humidity Wind Precip. Elev Updated Type